MHTG/TGU METAR and TAF weather

Enter ICAO airport designator
Station Type Date Time Source
MHTG METAR 2020/10/20 17:00 UTC NOAA

MHTG 201700Z VRB02KT 9999 SCT030TCU 28/22 Q1015 A2997


Station Type Date Time Source
MHTG Decoded METAR 2020/10/20 17:00 UTC NOAA

Tegucigalpa, Honduras (MHTG) 14-03N 087-13W 1007M
Oct 20, 2020 - 01:00 PM EDT / 2020.10.20 1700 UTC
Wind: Variable at 2 MPH (2 KT):0
Visibility: greater than 7 mile(s):0
Sky conditions: partly cloudy
Weather: Towering cumulus clouds observed
Temperature: 82 F (28 C)
Dew Point: 71 F (22 C)
Relative Humidity: 69%
Pressure (altimeter): 29.97 in. Hg (1014 hPa)
ob: MHTG 201700Z VRB02KT 9999 SCT030TCU 28/22 Q1015 A2997
cycle: 17

Station Type Date Time Source
MHTG TAF 2020/10/20 18:57 UTC NOAA

TAF MHTG 201645Z 2018/2118 03005KT 9999 SCT028TCU TX28/2020Z TN17/2112Z
TEMPO 2021/2103 17004KT 5000 TSSHRA SCT030CB SCT080
BECMG 2103/2105 7000 RA SCT028TCU BKN070
BECMG 2107/2109 VCSH SCT006 BKN024
BECMG 2114/2116 02006KT 9999 NSW FEW012 SCT026

Example: see airport list